createdAt,value
2023-02-07T00:02:51.840Z,-5.62
2023-02-07T00:06:44.398Z,-5.64
2023-02-07T00:10:37.202Z,-5.70
2023-02-07T00:14:30.470Z,-5.78
2023-02-07T00:18:23.179Z,-5.96
2023-02-07T00:22:15.840Z,-5.99
2023-02-07T00:26:10.124Z,-5.89
2023-02-07T00:30:03.152Z,-5.99
2023-02-07T00:34:00.645Z,-5.89
2023-02-07T00:37:53.578Z,-5.75
2023-02-07T00:41:46.668Z,-5.71
2023-02-07T00:45:39.637Z,-5.65
2023-02-07T00:49:32.753Z,-5.75
2023-02-07T00:53:26.532Z,-5.89
2023-02-07T00:57:19.348Z,-5.90
2023-02-07T01:01:12.727Z,-6.02
2023-02-07T01:05:07.062Z,-6.05
2023-02-07T01:09:01.947Z,-5.96
2023-02-07T01:12:54.503Z,-5.96
2023-02-07T01:16:47.302Z,-6.10
2023-02-07T01:20:40.190Z,-6.03
2023-02-07T01:24:32.832Z,-6.16
2023-02-07T01:28:25.682Z,-6.40
2023-02-07T01:32:18.576Z,-6.28
2023-02-07T01:36:14.650Z,-6.48
2023-02-07T01:40:08.096Z,-6.42
2023-02-07T01:44:08.984Z,-6.34
2023-02-07T01:48:13.944Z,-6.38
2023-02-07T01:52:20.004Z,-6.48
2023-02-07T01:56:29.454Z,-6.54
2023-02-07T02:00:24.627Z,-6.42
2023-02-07T02:04:17.338Z,-6.16
2023-02-07T02:08:10.204Z,-6.14
2023-02-07T02:12:45.506Z,-6.20
2023-02-07T02:16:45.466Z,-6.30
2023-02-07T02:21:25.891Z,-6.27
2023-02-07T02:25:47.048Z,-6.27
2023-02-07T02:30:14.803Z,-6.48
2023-02-07T02:34:08.227Z,-6.65
2023-02-07T02:38:05.188Z,-6.68
2023-02-07T02:42:17.411Z,-6.58
2023-02-07T02:46:21.380Z,-6.67
2023-02-07T02:50:18.678Z,-6.81
2023-02-07T02:54:31.648Z,-6.69
2023-02-07T02:58:24.416Z,-6.51
2023-02-07T03:02:50.614Z,-6.40
2023-02-07T03:07:01.575Z,-6.36
2023-02-07T03:11:07.580Z,-6.36
2023-02-07T03:15:29.805Z,-6.44
2023-02-07T03:19:32.682Z,-6.34
2023-02-07T03:23:26.354Z,-6.60
2023-02-07T03:27:21.021Z,-6.64
2023-02-07T03:31:17.926Z,-6.68
2023-02-07T03:35:25.824Z,-6.60
2023-02-07T03:39:18.870Z,-6.60
2023-02-07T03:43:17.007Z,-6.60
2023-02-07T03:47:09.847Z,-6.79
2023-02-07T03:51:02.623Z,-6.92
2023-02-07T03:54:55.858Z,-6.99
2023-02-07T03:58:48.536Z,-6.96
2023-02-07T04:02:41.438Z,-6.97
2023-02-07T04:06:34.188Z,-6.92
2023-02-07T04:10:27.115Z,-6.69
2023-02-07T04:14:22.558Z,-6.75
2023-02-07T04:18:15.378Z,-6.79
2023-02-07T04:22:11.251Z,-6.96
2023-02-07T04:26:04.380Z,-6.93
2023-02-07T04:29:57.088Z,-6.91
2023-02-07T04:33:49.822Z,-6.79
2023-02-07T04:37:42.785Z,-6.81
2023-02-07T04:41:36.473Z,-6.85
2023-02-07T04:45:29.088Z,-6.91
2023-02-07T04:49:21.846Z,-6.86
2023-02-07T04:53:15.527Z,-7.07
2023-02-07T04:57:08.119Z,-7.13
2023-02-07T05:01:01.067Z,-7.17
2023-02-07T05:04:53.691Z,-7.33
2023-02-07T05:08:46.544Z,-7.31
2023-02-07T05:12:39.311Z,-7.06
2023-02-07T05:16:31.957Z,-7.17
2023-02-07T05:20:26.022Z,-7.28
2023-02-07T05:24:18.865Z,-7.03
2023-02-07T05:28:11.847Z,-7.00
2023-02-07T05:32:23.251Z,-7.12
2023-02-07T05:36:15.841Z,-7.10
2023-02-07T05:40:09.588Z,-7.03
2023-02-07T05:44:02.549Z,-6.95
2023-02-07T05:47:55.515Z,-6.88
2023-02-07T05:51:48.163Z,-6.82
2023-02-07T05:55:41.357Z,-6.91
2023-02-07T05:59:34.240Z,-6.78
2023-02-07T06:03:26.892Z,-6.91
2023-02-07T06:07:19.558Z,-6.93
2023-02-07T06:11:12.627Z,-6.84
2023-02-07T06:15:05.434Z,-6.78
2023-02-07T06:18:58.258Z,-6.64
2023-02-07T06:22:52.457Z,-6.61
2023-02-07T06:26:47.049Z,-6.47
2023-02-07T06:30:39.814Z,-6.41
2023-02-07T06:34:32.525Z,-6.33
2023-02-07T06:38:25.383Z,-6.28
2023-02-07T06:42:18.145Z,-6.07
2023-02-07T06:46:10.947Z,-5.93
2023-02-07T06:50:04.875Z,-5.82
2023-02-07T06:53:57.716Z,-5.81
2023-02-07T06:57:51.812Z,-5.85
2023-02-07T07:01:44.451Z,-5.75
2023-02-07T07:05:37.838Z,-5.65
2023-02-07T07:09:30.972Z,-5.55
2023-02-07T07:13:23.643Z,-5.55
2023-02-07T07:17:16.301Z,-5.57
2023-02-07T07:21:11.675Z,-5.61
2023-02-07T07:25:05.005Z,-5.50
2023-02-07T07:29:00.350Z,-5.41
2023-02-07T07:32:53.139Z,-5.20
2023-02-07T07:36:46.012Z,-4.95
2023-02-07T07:40:39.077Z,-4.76
2023-02-07T07:44:32.083Z,-4.67
2023-02-07T07:48:25.507Z,-4.61
2023-02-07T07:52:18.226Z,-4.54
2023-02-07T07:56:11.237Z,-4.26
2023-02-07T08:00:06.527Z,-4.11
2023-02-07T08:03:59.425Z,-3.93
2023-02-07T08:07:52.268Z,-3.74
2023-02-07T08:11:46.082Z,-3.71
2023-02-07T08:15:39.616Z,-3.60
2023-02-07T08:19:33.241Z,-3.39
2023-02-07T08:23:26.077Z,-3.23
2023-02-07T08:27:18.904Z,-2.99
2023-02-07T08:31:12.535Z,-2.89
2023-02-07T08:35:06.014Z,-2.82
2023-02-07T08:38:59.260Z,-2.65
2023-02-07T08:42:52.079Z,-2.40
2023-02-07T08:46:44.802Z,-2.50
2023-02-07T08:50:38.028Z,-2.41
2023-02-07T08:54:31.236Z,-2.06
2023-02-07T08:58:23.969Z,-2.01
2023-02-07T09:02:16.686Z,-1.84
2023-02-07T09:06:10.833Z,-1.74
2023-02-07T09:10:06.956Z,-1.77
2023-02-07T09:13:59.713Z,-1.37
2023-02-07T09:17:52.556Z,-1.50
2023-02-07T09:21:45.537Z,-1.43
2023-02-07T09:25:40.784Z,-1.37
2023-02-07T09:29:34.954Z,-1.46
2023-02-07T09:33:30.019Z,-1.57
2023-02-07T09:37:22.794Z,-1.50
2023-02-07T09:41:41.036Z,-1.40
2023-02-07T09:45:39.209Z,-1.32
2023-02-07T09:49:53.767Z,-1.26
2023-02-07T09:53:49.439Z,-1.30
2023-02-07T09:57:49.457Z,-1.29
2023-02-07T10:01:47.610Z,-1.26
2023-02-07T10:06:18.889Z,-1.25
2023-02-07T10:10:25.640Z,-1.13
2023-02-07T10:14:56.589Z,-1.15
2023-02-07T10:19:01.313Z,-1.23
2023-02-07T10:23:32.817Z,-1.21
2023-02-07T10:27:38.761Z,-1.17
2023-02-07T10:31:33.611Z,-1.27
2023-02-07T10:35:36.706Z,-1.20
2023-02-07T10:39:36.839Z,-1.20
2023-02-07T10:43:33.200Z,-1.25
2023-02-07T10:47:26.617Z,-1.19
2023-02-07T10:51:27.845Z,-1.27
2023-02-07T10:55:36.782Z,-1.12
2023-02-07T10:59:51.594Z,-1.09
2023-02-07T11:03:44.554Z,-1.08
2023-02-07T11:07:47.376Z,-1.02
2023-02-07T11:11:41.885Z,-0.96
2023-02-07T11:15:49.688Z,-0.88
2023-02-07T11:19:45.583Z,-0.89
2023-02-07T11:23:44.755Z,-0.91
2023-02-07T11:27:40.682Z,-0.67
2023-02-07T11:31:37.567Z,-0.78
2023-02-07T11:35:30.536Z,-0.64
2023-02-07T11:39:23.960Z,-0.45
2023-02-07T11:43:19.255Z,-0.60
2023-02-07T11:47:28.350Z,-0.51
2023-02-07T11:51:23.258Z,-0.53
2023-02-07T11:55:22.502Z,-0.53
2023-02-07T11:59:18.695Z,-0.44
2023-02-07T12:03:26.758Z,-0.51
2023-02-07T12:07:25.998Z,-0.47
2023-02-07T12:11:24.201Z,-0.49
2023-02-07T12:15:22.747Z,-0.47
2023-02-07T12:19:24.616Z,-0.57
2023-02-07T12:23:40.698Z,-0.37
2023-02-07T12:27:40.149Z,-0.37
2023-02-07T12:31:59.143Z,-0.36
2023-02-07T12:36:04.081Z,-0.34
2023-02-07T12:40:27.183Z,-0.41
2023-02-07T12:44:35.993Z,-0.34
2023-02-07T12:48:47.224Z,-0.36
2023-02-07T12:52:45.916Z,-0.26
2023-02-07T12:57:23.861Z,-0.20
2023-02-07T13:01:38.968Z,-0.12
2023-02-07T13:05:31.863Z,-0.17
2023-02-07T13:09:37.646Z,-0.29
2023-02-07T13:13:40.865Z,-0.34
2023-02-07T13:17:42.350Z,-0.33
2023-02-07T13:21:48.850Z,-0.27
2023-02-07T13:25:44.236Z,-0.26
2023-02-07T13:29:39.508Z,-0.16
2023-02-07T13:33:40.873Z,-0.22
2023-02-07T13:37:49.768Z,-0.16
2023-02-07T13:42:07.060Z,-0.14
2023-02-07T13:46:02.732Z,-0.19
2023-02-07T13:50:14.132Z,-0.20
2023-02-07T13:54:37.562Z,-0.23
2023-02-07T13:58:52.233Z,-0.22
2023-02-07T14:02:52.516Z,-0.17
2023-02-07T14:06:57.626Z,-0.13
2023-02-07T14:10:56.254Z,-0.19
2023-02-07T14:15:01.899Z,-0.14
2023-02-07T14:18:55.758Z,-0.27
2023-02-07T14:22:51.416Z,-0.30
2023-02-07T14:26:59.289Z,-0.29
2023-02-07T14:30:52.051Z,-0.19
2023-02-07T14:35:19.652Z,-0.22
2023-02-07T14:39:18.780Z,-0.23
2023-02-07T14:43:15.088Z,-0.26
2023-02-07T14:47:15.963Z,-0.31
2023-02-07T14:51:16.854Z,-0.36
2023-02-07T14:55:24.602Z,-0.30
2023-02-07T14:59:27.632Z,-0.38
2023-02-07T15:03:22.136Z,-0.50
2023-02-07T15:07:19.270Z,-0.54
2023-02-07T15:11:13.967Z,-0.62
2023-02-07T15:15:08.194Z,-0.64
2023-02-07T15:19:19.847Z,-0.65
2023-02-07T15:23:15.376Z,-0.70
2023-02-07T15:27:20.726Z,-0.77
2023-02-07T15:31:19.020Z,-0.78
2023-02-07T15:35:27.022Z,-0.71
2023-02-07T15:39:24.466Z,-0.84
2023-02-07T15:43:23.853Z,-0.93
2023-02-07T15:47:36.831Z,-0.96
2023-02-07T15:51:33.908Z,-1.05
2023-02-07T15:55:45.686Z,-1.13
2023-02-07T15:59:41.519Z,-1.17
2023-02-07T16:03:42.168Z,-1.20
2023-02-07T16:07:36.904Z,-1.23
2023-02-07T16:11:32.882Z,-1.26
2023-02-07T16:15:32.410Z,-1.27
2023-02-07T16:19:33.399Z,-1.37
2023-02-07T16:23:27.529Z,-1.42
2023-02-07T16:27:24.719Z,-1.51
2023-02-07T16:31:19.853Z,-1.51
2023-02-07T16:35:27.161Z,-1.60
2023-02-07T16:39:20.332Z,-1.68
2023-02-07T16:43:34.138Z,-1.71
2023-02-07T16:47:27.530Z,-1.79
2023-02-07T16:51:21.277Z,-1.88
2023-02-07T16:55:13.975Z,-1.93
2023-02-07T16:59:09.782Z,-1.95
2023-02-07T17:03:02.801Z,-2.02
2023-02-07T17:06:55.466Z,-2.01
2023-02-07T17:10:52.500Z,-2.20
2023-02-07T17:14:45.410Z,-2.22
2023-02-07T17:18:38.308Z,-2.20
2023-02-07T17:22:31.445Z,-2.28
2023-02-07T17:26:31.818Z,-2.33
2023-02-07T17:30:40.181Z,-2.36
2023-02-07T17:34:33.541Z,-2.43
2023-02-07T17:38:29.375Z,-2.50
2023-02-07T17:42:24.116Z,-2.56
2023-02-07T17:46:27.306Z,-2.62
2023-02-07T17:50:26.631Z,-2.61
2023-02-07T17:54:21.706Z,-2.60
2023-02-07T17:58:19.656Z,-2.64
2023-02-07T18:02:15.545Z,-2.61
2023-02-07T18:06:14.821Z,-2.75
2023-02-07T18:10:11.475Z,-2.75
2023-02-07T18:14:09.533Z,-2.86
2023-02-07T18:18:04.251Z,-2.89
2023-02-07T18:21:58.746Z,-2.88
2023-02-07T18:25:53.270Z,-2.92
2023-02-07T18:29:47.184Z,-2.92
2023-02-07T18:33:41.370Z,-3.05
2023-02-07T18:37:35.639Z,-3.09
2023-02-07T18:41:30.121Z,-3.12
2023-02-07T18:45:26.001Z,-3.10
2023-02-07T18:49:20.271Z,-3.13
2023-02-07T18:53:14.560Z,-3.23
2023-02-07T18:57:10.653Z,-3.16
2023-02-07T19:01:10.554Z,-3.17
2023-02-07T19:05:05.174Z,-3.21
2023-02-07T19:08:59.999Z,-3.27
2023-02-07T19:12:55.211Z,-3.30
2023-02-07T19:16:52.179Z,-3.32
2023-02-07T19:20:46.611Z,-3.47
2023-02-07T19:24:42.864Z,-3.50
2023-02-07T19:28:39.673Z,-3.39
2023-02-07T19:32:34.050Z,-3.51
2023-02-07T19:36:29.045Z,-3.58
2023-02-07T19:40:24.245Z,-3.57
2023-02-07T19:44:18.995Z,-3.74
2023-02-07T19:48:14.965Z,-3.74
2023-02-07T19:52:10.162Z,-3.74
2023-02-07T19:56:12.912Z,-3.71
2023-02-07T20:00:12.141Z,-3.86
2023-02-07T20:04:10.644Z,-4.07
2023-02-07T20:08:05.754Z,-4.13
2023-02-07T20:12:02.766Z,-4.13
2023-02-07T20:15:57.198Z,-4.00
2023-02-07T20:19:52.855Z,-4.13
2023-02-07T20:23:51.071Z,-4.14
2023-02-07T20:27:45.733Z,-4.16
2023-02-07T20:31:41.657Z,-4.16
2023-02-07T20:35:39.932Z,-4.14
2023-02-07T20:39:35.335Z,-4.19
2023-02-07T20:43:29.470Z,-4.23
2023-02-07T20:47:27.355Z,-4.31
2023-02-07T20:51:22.891Z,-4.30
2023-02-07T20:55:18.214Z,-4.37
2023-02-07T20:59:20.722Z,-4.30
2023-02-07T21:03:15.506Z,-4.27
2023-02-07T21:07:09.661Z,-4.27
2023-02-07T21:11:05.870Z,-4.33
2023-02-07T21:14:59.622Z,-4.48
2023-02-07T21:18:52.925Z,-4.50
2023-02-07T21:22:46.453Z,-4.54
2023-02-07T21:26:40.261Z,-4.56
2023-02-07T21:30:34.595Z,-4.51
2023-02-07T21:34:27.581Z,-4.64
2023-02-07T21:38:20.910Z,-4.61
2023-02-07T21:42:14.156Z,-4.62
2023-02-07T21:46:11.679Z,-4.65
2023-02-07T21:50:04.649Z,-4.54
2023-02-07T21:53:58.281Z,-4.51
2023-02-07T21:57:51.874Z,-4.61
2023-02-07T22:01:46.506Z,-4.31
2023-02-07T22:05:39.300Z,-4.29
2023-02-07T22:09:31.888Z,-4.47
2023-02-07T22:13:30.431Z,-4.37
2023-02-07T22:17:23.685Z,-4.24
2023-02-07T22:21:20.748Z,-4.31
2023-02-07T22:25:13.261Z,-4.27
2023-02-07T22:29:07.428Z,-4.48
2023-02-07T22:33:00.202Z,-4.50
2023-02-07T22:36:52.962Z,-4.62
2023-02-07T22:40:45.415Z,-4.81
2023-02-07T22:44:38.168Z,-5.05
2023-02-07T22:48:31.542Z,-5.07
2023-02-07T22:52:24.203Z,-5.13
2023-02-07T22:56:17.525Z,-5.13
2023-02-07T23:00:15.096Z,-5.13
2023-02-07T23:04:13.295Z,-5.16
2023-02-07T23:08:07.023Z,-4.92
2023-02-07T23:12:00.536Z,-4.78
2023-02-07T23:15:54.227Z,-4.81
2023-02-07T23:19:47.068Z,-4.93
2023-02-07T23:23:40.632Z,-4.86
2023-02-07T23:27:33.770Z,-4.69
2023-02-07T23:31:26.878Z,-4.64
2023-02-07T23:35:19.746Z,-4.81
2023-02-07T23:39:12.761Z,-4.76
2023-02-07T23:43:05.316Z,-4.69
2023-02-07T23:46:58.076Z,-4.72
2023-02-07T23:50:55.698Z,-5.00
2023-02-07T23:54:48.535Z,-5.12
2023-02-07T23:58:41.302Z,-5.27
